Time;durP1;ratioP1;P1;durP2;ratioP2;P2;SDS_P1;SDS_P2;PMS_P1;PMS_P2;Temp;Humidity;BMP_temperature;BMP_pressure;BME280_temperature;BME280_humidity;BME280_pressure;Samples;Min_cycle;Max_cycle;Signal;HPM_P1;HPM_P2
2023/09/12 00:00:26;;;;;;;9.00;8.10;;;24.20;99.90;;;;;;5094904;28;20286;-66
2023/09/12 00:02:53;;;;;;;9.48;8.52;;;24.10;99.90;;;;;;5069745;28;20286;-66
2023/09/12 00:05:20;;;;;;;9.50;8.65;;;24.10;99.90;;;;;;5065100;28;20623;-67
2023/09/12 00:07:46;;;;;;;8.85;8.15;;;24.10;99.90;;;;;;5064775;28;20298;-66
2023/09/12 00:10:13;;;;;;;9.23;8.25;;;24.00;99.90;;;;;;5065223;28;20208;-66
2023/09/12 00:12:40;;;;;;;8.68;7.90;;;24.00;99.90;;;;;;5077496;28;20321;-66
2023/09/12 00:15:09;;;;;;;11.43;7.95;;;24.00;99.90;;;;;;5085366;28;20234;-66
2023/09/12 00:17:36;;;;;;;8.98;8.18;;;24.00;99.90;;;;;;5085096;28;20907;-66
2023/09/12 00:20:06;;;;;;;11.07;7.70;;;24.00;99.90;;;;;;5085153;28;20295;-66
2023/09/12 00:22:32;;;;;;;10.20;7.80;;;24.00;99.90;;;;;;5082356;28;20243;-66
2023/09/12 00:24:59;;;;;;;8.65;7.85;;;24.00;99.90;;;;;;5085116;28;20297;-66
2023/09/12 00:27:26;;;;;;;8.35;7.55;;;23.90;99.90;;;;;;5098803;28;20255;-66
2023/09/12 00:29:53;;;;;;;8.40;7.57;;;23.90;99.90;;;;;;5086956;28;20203;-67
2023/09/12 00:32:21;;;;;;;8.63;7.78;;;23.80;99.90;;;;;;5080653;28;20289;-66
2023/09/12 00:34:48;;;;;;;8.00;7.40;;;23.80;99.90;;;;;;5083814;28;20325;-66
2023/09/12 00:37:15;;;;;;;7.90;7.30;;;23.80;99.90;;;;;;5067575;28;20207;-66
2023/09/12 00:39:42;;;;;;;9.80;8.00;;;23.80;99.90;;;;;;5064452;28;21052;-66
2023/09/12 00:42:09;;;;;;;9.18;8.35;;;23.70;99.90;;;;;;5072527;28;20567;-66
2023/09/12 00:44:36;;;;;;;9.25;8.52;;;23.70;99.90;;;;;;5083902;28;20797;-66
2023/09/12 00:47:04;;;;;;;8.60;7.80;;;23.60;99.90;;;;;;5084465;28;20933;-66
2023/09/12 00:49:33;;;;;;;8.77;8.07;;;23.60;99.90;;;;;;5084465;28;20206;-66
2023/09/12 00:52:01;;;;;;;8.80;8.00;;;23.60;99.90;;;;;;5077486;28;20750;-66
2023/09/12 00:54:28;;;;;;;8.73;8.00;;;23.60;99.90;;;;;;5064188;28;20326;-66
2023/09/12 00:56:55;;;;;;;8.25;7.40;;;23.60;99.90;;;;;;5086420;28;20292;-66
2023/09/12 00:59:23;;;;;;;9.18;8.25;;;23.60;99.90;;;;;;5104270;28;20259;-66
2023/09/12 01:01:52;;;;;;;8.80;8.00;;;23.50;99.90;;;;;;5098132;28;20611;-67
2023/09/12 01:04:18;;;;;;;8.55;7.80;;;23.50;99.90;;;;;;5082517;28;20306;-67
2023/09/12 01:06:48;;;;;;;8.65;7.85;;;23.50;99.90;;;;;;5088233;28;20752;-69
2023/09/12 01:09:15;;;;;;;11.80;8.25;;;23.40;99.90;;;;;;5088424;28;20206;-67
2023/09/12 01:11:42;;;;;;;8.23;7.53;;;23.50;99.90;;;;;;5088004;28;20309;-67
2023/09/12 01:14:09;;;;;;;8.85;8.10;;;23.40;99.90;;;;;;5074086;28;20227;-67
2023/09/12 01:16:36;;;;;;;8.30;7.50;;;23.40;99.90;;;;;;5068311;28;20231;-67
2023/09/12 01:19:05;;;;;;;9.40;7.15;;;23.40;99.90;;;;;;5068326;28;20310;-67
2023/09/12 01:21:46;;;;;;;8.23;7.50;;;23.40;99.90;;;;;;5068009;28;20203;-67
2023/09/12 01:24:38;;;;;;;9.00;8.18;;;23.40;99.90;;;;;;5083233;28;20194;-67
2023/09/12 01:27:21;;;;;;;8.45;7.63;;;23.40;99.90;;;;;;5096269;28;20306;-67
2023/09/12 01:29:52;;;;;;;11.23;8.57;;;23.30;99.90;;;;;;5102618;28;20237;-67
2023/09/12 01:32:20;;;;;;;8.43;7.70;;;23.30;99.90;;;;;;5088155;28;20195;-67
2023/09/12 01:34:47;;;;;;;9.15;7.55;;;23.20;99.90;;;;;;5087110;28;20222;-67
2023/09/12 01:37:14;;;;;;;8.45;7.85;;;23.20;99.90;;;;;;5070674;28;20290;-67
2023/09/12 01:39:41;;;;;;;10.13;7.72;;;23.20;99.90;;;;;;5068016;28;20294;-67
2023/09/12 01:42:12;;;;;;;7.88;7.38;;;23.10;99.90;;;;;;5067981;28;20214;-67
2023/09/12 01:44:44;;;;;;;9.77;8.10;;;23.10;99.90;;;;;;5085763;28;20211;-67
2023/09/12 01:47:12;;;;;;;7.60;7.15;;;23.10;99.90;;;;;;5085367;28;20314;-67
2023/09/12 01:49:42;;;;;;;8.15;7.40;;;23.00;99.90;;;;;;5087284;28;20958;-67
2023/09/12 01:52:11;;;;;;;9.65;8.65;;;22.90;99.90;;;;;;5088101;28;20210;-67
2023/09/12 01:54:39;;;;;;;10.23;7.80;;;22.90;99.90;;;;;;5073030;28;20312;-66
2023/09/12 01:57:06;;;;;;;8.45;7.38;;;22.90;99.90;;;;;;5089575;28;20214;-66
2023/09/12 01:59:33;;;;;;;7.93;7.38;;;22.80;99.90;;;;;;5102912;27;20616;-66
2023/09/12 02:02:02;;;;;;;8.38;7.78;;;22.80;99.90;;;;;;5107478;28;20655;-66
2023/09/12 02:04:29;;;;;;;8.25;7.47;;;22.80;99.90;;;;;;5107746;28;20210;-66
2023/09/12 02:06:55;;;;;;;8.23;7.40;;;22.80;99.90;;;;;;5107944;28;20198;-67
2023/09/12 02:09:22;;;;;;;8.35;7.55;;;22.80;99.90;;;;;;5107867;28;20480;-67
2023/09/12 02:11:50;;;;;;;8.07;7.35;;;22.90;99.90;;;;;;5107922;28;20638;-67
2023/09/12 02:14:18;;;;;;;8.40;7.57;;;22.80;99.90;;;;;;5107502;28;20237;-67
2023/09/12 02:16:45;;;;;;;7.85;7.05;;;22.80;99.90;;;;;;5097022;28;20207;-67
2023/09/12 02:19:13;;;;;;;9.13;7.47;;;22.70;99.90;;;;;;5074737;28;20301;-66
2023/09/12 02:21:40;;;;;;;11.60;7.80;;;22.70;99.90;;;;;;5068580;28;20322;-67
2023/09/12 02:24:07;;;;;;;8.77;7.80;;;22.70;99.90;;;;;;5069210;28;20207;-67
2023/09/12 02:26:36;;;;;;;6.93;6.43;;;22.70;99.90;;;;;;5076561;28;20285;-66
2023/09/12 02:29:03;;;;;;;9.15;7.03;;;22.60;99.90;;;;;;5085743;28;20203;-67
2023/09/12 02:31:30;;;;;;;8.48;7.72;;;22.60;99.90;;;;;;5086255;28;20207;-67
2023/09/12 02:33:59;;;;;;;9.18;7.57;;;22.60;99.90;;;;;;5086672;28;20326;-67
2023/09/12 02:36:27;;;;;;;8.80;7.60;;;22.50;99.90;;;;;;5075579;28;20299;-66
2023/09/12 02:38:54;;;;;;;8.18;7.35;;;22.50;99.90;;;;;;5065440;28;20199;-66
2023/09/12 02:41:21;;;;;;;12.02;8.25;;;22.40;99.90;;;;;;5068565;28;20274;-66
2023/09/12 02:43:48;;;;;;;8.07;7.38;;;22.40;99.90;;;;;;5065096;28;20289;-66
2023/09/12 02:46:15;;;;;;;8.43;7.75;;;22.40;99.90;;;;;;5064613;28;20235;-66
2023/09/12 02:48:42;;;;;;;7.82;7.22;;;22.40;99.90;;;;;;5075999;28;20295;-66
2023/09/12 02:51:09;;;;;;;7.93;7.22;;;22.40;99.90;;;;;;5075643;28;20235;-66
2023/09/12 02:53:37;;;;;;;8.13;7.32;;;22.40;99.90;;;;;;5063882;28;20320;-66
2023/09/12 02:56:04;;;;;;;8.25;7.43;;;22.30;99.90;;;;;;5085381;28;20252;-66
2023/09/12 02:58:31;;;;;;;9.32;7.80;;;22.30;99.90;;;;;;5084144;28;20672;-66
2023/09/12 03:00:58;;;;;;;8.63;7.75;;;22.30;99.90;;;;;;5064647;28;20318;-66
2023/09/12 03:03:25;;;;;;;7.80;7.10;;;22.20;99.90;;;;;;5065095;28;20260;-67
2023/09/12 03:05:58;;;;;;;8.43;7.65;;;22.20;99.90;;;;;;5065882;28;20243;-67
2023/09/12 03:08:25;;;;;;;9.02;7.97;;;22.20;99.90;;;;;;5066080;28;20196;-67
2023/09/12 03:10:56;;;;;;;8.23;7.60;;;22.20;99.90;;;;;;5085040;28;20297;-67
2023/09/12 03:13:25;;;;;;;8.07;7.40;;;22.20;99.90;;;;;;5085628;28;20926;-67
2023/09/12 03:15:52;;;;;;;8.95;7.60;;;22.20;99.90;;;;;;5085930;28;20206;-67
2023/09/12 03:18:19;;;;;;;8.27;7.60;;;22.20;99.90;;;;;;5070276;28;20298;-67
2023/09/12 03:20:46;;;;;;;8.77;7.78;;;22.20;99.90;;;;;;5065342;28;20297;-67
2023/09/12 03:23:13;;;;;;;7.25;6.65;;;22.20;99.90;;;;;;5065340;28;20302;-67
2023/09/12 03:25:40;;;;;;;7.93;7.40;;;22.20;99.90;;;;;;5065499;28;20243;-67
2023/09/12 03:28:09;;;;;;;8.18;7.40;;;22.20;99.90;;;;;;5104458;28;20296;-66
2023/09/12 03:30:38;;;;;;;8.02;7.32;;;22.20;99.90;;;;;;5106402;28;20286;-66
2023/09/12 03:33:06;;;;;;;7.95;7.38;;;22.10;99.90;;;;;;5106282;28;20324;-66
2023/09/12 03:35:34;;;;;;;7.78;7.18;;;22.10;99.90;;;;;;5105206;28;20240;-66
2023/09/12 03:38:01;;;;;;;9.40;8.10;;;22.10;99.90;;;;;;5068451;28;20298;-66
2023/09/12 03:40:30;;;;;;;8.32;7.63;;;22.10;99.90;;;;;;5065266;28;20721;-65
2023/09/12 03:42:57;;;;;;;8.73;7.95;;;22.10;99.90;;;;;;5065442;28;20211;-66
2023/09/12 03:45:25;;;;;;;9.10;8.30;;;22.10;99.90;;;;;;5075064;28;20728;-66
2023/09/12 03:47:53;;;;;;;9.35;7.82;;;22.10;99.90;;;;;;5085547;28;20237;-66
2023/09/12 03:50:19;;;;;;;8.13;7.38;;;22.10;99.90;;;;;;5085298;28;20972;-66
2023/09/12 03:52:46;;;;;;;7.97;7.35;;;22.10;99.90;;;;;;5084712;28;20657;-66
2023/09/12 03:55:13;;;;;;;8.80;8.05;;;22.00;99.90;;;;;;5085147;28;20254;-65
2023/09/12 03:57:40;;;;;;;9.75;7.57;;;22.00;99.90;;;;;;5100784;28;20313;-66
2023/09/12 04:00:08;;;;;;;8.50;7.80;;;22.00;99.90;;;;;;5105293;28;20297;-66
2023/09/12 04:02:37;;;;;;;8.38;7.68;;;22.00;99.90;;;;;;5105182;28;20238;-66
2023/09/12 04:05:04;;;;;;;8.80;7.97;;;22.00;99.90;;;;;;5106057;28;20293;-66
2023/09/12 04:07:31;;;;;;;9.25;8.48;;;22.00;99.90;;;;;;5105618;28;20297;-66
2023/09/12 04:09:58;;;;;;;9.55;8.38;;;22.00;99.90;;;;;;5105787;28;20293;-66
2023/09/12 04:12:25;;;;;;;8.98;8.25;;;22.10;99.90;;;;;;5105684;28;20575;-66
2023/09/12 04:14:52;;;;;;;8.63;7.82;;;22.10;99.90;;;;;;5087461;28;20670;-66
2023/09/12 04:17:19;;;;;;;8.77;8.07;;;22.10;99.90;;;;;;5085573;28;20321;-66
2023/09/12 04:19:47;;;;;;;8.80;8.10;;;22.10;99.90;;;;;;5085119;28;20321;-66
2023/09/12 04:22:14;;;;;;;9.23;8.48;;;22.10;99.90;;;;;;5085126;28;20293;-66
2023/09/12 04:24:41;;;;;;;8.88;7.97;;;22.20;99.90;;;;;;5084737;28;20334;-66
2023/09/12 04:27:08;;;;;;;10.90;7.72;;;22.20;99.90;;;;;;5096722;28;20649;-66
2023/09/12 04:29:35;;;;;;;9.25;8.45;;;22.20;99.90;;;;;;5104679;28;20267;-66
2023/09/12 04:32:03;;;;;;;9.45;8.35;;;22.20;99.90;;;;;;5105523;28;20206;-66
2023/09/12 04:34:30;;;;;;;8.82;7.93;;;22.20;99.90;;;;;;5064730;28;20235;-66
2023/09/12 04:36:58;;;;;;;9.50;8.23;;;22.30;99.90;;;;;;5064584;28;20396;-65
2023/09/12 04:39:25;;;;;;;8.35;7.53;;;22.20;99.90;;;;;;5065787;28;20638;-66
2023/09/12 04:41:52;;;;;;;9.10;8.30;;;22.30;99.90;;;;;;5080768;28;20252;-66
2023/09/12 04:44:19;;;;;;;8.98;8.38;;;22.30;99.90;;;;;;5088726;28;20211;-65
2023/09/12 04:46:47;;;;;;;9.18;8.10;;;22.30;99.90;;;;;;5089111;28;20803;-66
2023/09/12 04:49:14;;;;;;;8.43;7.60;;;22.30;99.90;;;;;;5071956;28;20697;-66
2023/09/12 04:51:42;;;;;;;11.35;7.88;;;22.20;99.90;;;;;;5068352;28;20744;-66
2023/09/12 04:54:10;;;;;;;12.95;8.70;;;22.20;99.90;;;;;;5068468;28;20690;-66
2023/09/12 04:56:37;;;;;;;21.30;9.40;;;22.20;99.90;;;;;;5082898;28;20212;-66
2023/09/12 04:59:06;;;;;;;14.48;8.40;;;22.10;99.90;;;;;;5108933;28;20233;-66
2023/09/12 05:01:33;;;;;;;8.70;7.93;;;22.10;99.90;;;;;;5109188;28;20328;-65
2023/09/12 05:04:00;;;;;;;9.02;8.13;;;22.10;99.90;;;;;;5108955;28;20293;-66
2023/09/12 05:06:27;;;;;;;10.43;7.97;;;22.10;99.90;;;;;;5073748;28;20664;-66
2023/09/12 05:08:54;;;;;;;9.15;8.25;;;22.10;99.90;;;;;;5067973;28;20553;-66
2023/09/12 05:11:24;;;;;;;14.35;8.15;;;22.10;99.90;;;;;;5087303;28;20669;-66
2023/09/12 05:13:50;;;;;;;17.27;9.00;;;22.10;99.90;;;;;;5087902;28;20206;-66
2023/09/12 05:16:18;;;;;;;19.20;8.98;;;22.10;99.90;;;;;;5088100;28;20234;-66
2023/09/12 05:18:44;;;;;;;51.60;11.63;;;22.10;99.90;;;;;;5088442;28;20297;-66
2023/09/12 05:21:11;;;;;;;28.33;9.60;;;22.10;99.90;;;;;;5087883;28;20232;-66
2023/09/12 05:23:38;;;;;;;28.08;9.80;;;22.10;99.90;;;;;;5071330;28;20302;-66
2023/09/12 05:26:06;;;;;;;19.38;9.13;;;22.10;99.90;;;;;;5067688;28;20666;-66
2023/09/12 05:28:35;;;;;;;12.18;8.35;;;22.00;99.90;;;;;;5076288;28;20230;-65
2023/09/12 05:31:02;;;;;;;9.77;8.13;;;21.90;99.90;;;;;;5087886;28;20293;-66
2023/09/12 05:33:29;;;;;;;8.93;8.30;;;22.00;99.90;;;;;;5088198;28;20492;-66
2023/09/12 05:35:56;;;;;;;12.88;8.93;;;22.00;99.90;;;;;;5081470;28;20663;-66
2023/09/12 05:38:23;;;;;;;12.70;8.23;;;22.00;99.90;;;;;;5067549;28;20302;-66
2023/09/12 05:40:50;;;;;;;8.93;8.13;;;22.10;99.90;;;;;;5067406;28;20207;-66
2023/09/12 05:43:17;;;;;;;9.57;8.57;;;22.10;99.90;;;;;;5067261;28;20353;-66
2023/09/12 05:45:46;;;;;;;9.57;8.57;;;22.10;99.90;;;;;;5085923;28;20211;-66
2023/09/12 05:48:13;;;;;;;9.13;8.32;;;22.10;99.90;;;;;;5087389;28;20293;-66
2023/09/12 05:50:40;;;;;;;9.10;8.40;;;22.10;99.90;;;;;;5086605;28;20207;-66
2023/09/12 05:53:06;;;;;;;12.25;8.27;;;22.20;99.90;;;;;;5087688;28;20210;-66
2023/09/12 05:55:33;;;;;;;8.48;7.75;;;22.20;99.90;;;;;;5087248;28;20234;-66
2023/09/12 05:58:00;;;;;;;11.38;8.18;;;22.20;99.90;;;;;;5105743;28;20213;-66
2023/09/12 06:00:28;;;;;;;9.95;8.05;;;22.30;99.90;;;;;;5107803;28;20241;-66
2023/09/12 06:02:56;;;;;;;13.70;8.07;;;22.30;99.90;;;;;;5108170;28;20205;-66
2023/09/12 06:05:23;;;;;;;10.77;8.18;;;22.30;99.90;;;;;;5106666;28;20682;-66
2023/09/12 06:07:50;;;;;;;9.25;8.00;;;22.30;99.90;;;;;;5087136;28;20211;-66
2023/09/12 06:10:17;;;;;;;10.48;8.40;;;22.30;99.90;;;;;;5087171;28;20207;-66
2023/09/12 06:12:44;;;;;;;18.08;9.30;;;22.20;99.90;;;;;;5087249;28;20299;-66
2023/09/12 06:15:11;;;;;;;14.80;8.15;;;22.20;99.90;;;;;;5087330;28;20325;-66
2023/09/12 06:17:38;;;;;;;13.45;8.35;;;22.30;99.90;;;;;;5087018;28;20761;-65
2023/09/12 06:20:08;;;;;;;9.55;8.57;;;22.30;99.90;;;;;;5086769;28;20748;-66
2023/09/12 06:22:35;;;;;;;10.10;8.95;;;22.30;99.90;;;;;;5087087;28;20214;-66
2023/09/12 06:25:03;;;;;;;9.48;8.48;;;22.40;99.90;;;;;;5079648;28;20253;-65
2023/09/12 06:27:31;;;;;;;9.25;8.30;;;22.40;99.90;;;;;;5095486;28;20238;-66
2023/09/12 06:29:58;;;;;;;9.13;8.23;;;22.40;99.90;;;;;;5107649;28;20647;-66
2023/09/12 06:32:25;;;;;;;9.35;8.00;;;22.40;99.90;;;;;;5107635;28;20293;-66
2023/09/12 06:34:52;;;;;;;9.38;8.48;;;22.50;99.90;;;;;;5090851;28;20768;-66
2023/09/12 06:37:20;;;;;;;9.93;8.98;;;22.50;99.90;;;;;;5087107;28;20294;-66
2023/09/12 06:39:51;;;;;;;8.77;7.72;;;22.50;99.90;;;;;;5087281;28;20744;-65
2023/09/12 06:42:18;;;;;;;9.60;7.70;;;22.50;99.90;;;;;;5107364;28;20198;-66
2023/09/12 06:44:45;;;;;;;10.05;8.05;;;22.50;99.90;;;;;;5107277;28;20356;-66
2023/09/12 06:47:12;;;;;;;13.63;7.40;;;22.50;99.90;;;;;;5107166;28;20993;-66
2023/09/12 06:49:39;;;;;;;8.32;7.47;;;22.50;99.90;;;;;;5106654;28;20216;-66
2023/09/12 06:52:06;;;;;;;8.93;7.40;;;22.50;99.90;;;;;;5106712;28;20233;-66
2023/09/12 06:54:35;;;;;;;9.30;7.35;;;22.50;99.90;;;;;;5106748;28;20209;-66
2023/09/12 06:57:02;;;;;;;9.63;7.07;;;22.60;99.90;;;;;;5096225;27;20325;-66
2023/09/12 06:59:29;;;;;;;8.25;7.13;;;22.60;99.90;;;;;;5086363;28;20218;-66
2023/09/12 07:01:56;;;;;;;8.77;7.40;;;22.70;99.90;;;;;;5085204;28;20356;-66
2023/09/12 07:04:24;;;;;;;10.35;7.10;;;22.80;99.90;;;;;;5086514;28;20297;-66
2023/09/12 07:06:51;;;;;;;10.18;7.13;;;22.80;99.90;;;;;;5085946;28;20861;-66
2023/09/12 07:09:18;;;;;;;12.88;6.90;;;22.90;99.90;;;;;;5086585;28;20213;-66
2023/09/12 07:11:46;;;;;;;8.02;7.05;;;23.00;99.90;;;;;;5086293;28;20225;-66
2023/09/12 07:14:13;;;;;;;11.30;7.07;;;23.10;99.90;;;;;;5086000;28;20309;-66
2023/09/12 07:16:40;;;;;;;9.43;7.15;;;23.10;99.90;;;;;;5086105;28;20232;-66
2023/09/12 07:19:07;;;;;;;11.52;7.10;;;23.20;99.90;;;;;;5086249;28;20320;-66
2023/09/12 07:21:34;;;;;;;9.98;7.72;;;23.30;99.90;;;;;;5079804;28;20700;-66
2023/09/12 07:24:01;;;;;;;8.50;7.53;;;23.40;99.90;;;;;;5065358;28;20354;-66
2023/09/12 07:26:28;;;;;;;8.80;7.28;;;23.40;99.90;;;;;;5065354;28;20218;-66
2023/09/12 07:28:56;;;;;;;9.85;6.78;;;23.50;99.90;;;;;;5065401;28;20302;-66
2023/09/12 07:31:23;;;;;;;7.68;6.72;;;23.50;99.90;;;;;;5083471;28;20325;-66
2023/09/12 07:33:50;;;;;;;10.85;7.18;;;23.50;99.90;;;;;;5085255;28;20293;-65
2023/09/12 07:36:17;;;;;;;10.57;7.10;;;23.60;99.90;;;;;;5081477;28;20227;-66
2023/09/12 07:38:45;;;;;;;11.38;6.60;;;23.70;99.90;;;;;;5105586;28;20267;-65
2023/09/12 07:41:12;;;;;;;8.80;6.65;;;23.70;99.90;;;;;;5106234;28;20206;-66
2023/09/12 07:43:40;;;;;;;11.50;6.80;;;23.80;99.90;;;;;;5105958;28;20216;-65
2023/09/12 07:46:08;;;;;;;20.40;6.70;;;23.90;99.90;;;;;;5105812;28;20226;-66
2023/09/12 07:48:35;;;;;;;10.07;6.75;;;23.90;99.90;;;;;;5106049;28;20654;-66
2023/09/12 07:51:02;;;;;;;11.00;6.97;;;24.00;99.90;;;;;;5105616;28;20556;-66
2023/09/12 07:53:29;;;;;;;11.93;6.72;;;24.10;99.90;;;;;;5105514;28;20208;-66
2023/09/12 07:56:00;;;;;;;11.85;6.40;;;24.10;99.90;;;;;;5104098;28;20236;-66
2023/09/12 07:58:27;;;;;;;9.55;6.32;;;24.20;99.90;;;;;;5085378;28;20313;-66
2023/09/12 08:00:54;;;;;;;14.27;7.40;;;24.30;99.90;;;;;;5084577;28;20238;-66
2023/09/12 08:03:22;;;;;;;12.65;6.93;;;24.40;99.90;;;;;;5084850;28;20654;-66
2023/09/12 08:05:56;;;;;;;10.73;6.03;;;24.40;99.90;;;;;;5085011;28;20259;-66
2023/09/12 08:08:23;;;;;;;17.42;6.25;;;24.50;99.90;;;;;;5084876;28;20205;-66
2023/09/12 08:10:50;;;;;;;14.05;6.95;;;24.50;99.90;;;;;;5084807;28;20305;-66
2023/09/12 08:13:17;;;;;;;14.30;5.95;;;24.60;99.90;;;;;;5084960;28;20246;-66
2023/09/12 08:15:44;;;;;;;12.02;6.10;;;24.60;99.90;;;;;;5084487;28;20262;-66
2023/09/12 08:18:11;;;;;;;15.48;5.82;;;24.70;99.90;;;;;;5072418;28;20269;-66
2023/09/12 08:20:39;;;;;;;14.35;6.13;;;24.70;99.90;;;;;;5064449;28;20298;-66
2023/09/12 08:23:06;;;;;;;19.02;6.43;;;24.80;99.90;;;;;;5064250;28;20685;-66
2023/09/12 08:25:34;;;;;;;13.88;6.28;;;24.90;99.90;;;;;;5065381;28;20215;-66
2023/09/12 08:28:01;;;;;;;12.77;6.38;;;24.90;99.90;;;;;;5103561;28;20209;-66
2023/09/12 08:30:29;;;;;;;14.27;6.22;;;25.00;99.90;;;;;;5105434;28;20233;-66
2023/09/12 08:32:56;;;;;;;15.93;6.20;;;25.10;99.90;;;;;;5099537;28;20214;-66
2023/09/12 08:35:23;;;;;;;12.93;5.97;;;25.10;99.90;;;;;;5084997;28;20230;-66
2023/09/12 08:37:51;;;;;;;14.63;6.07;;;25.20;99.90;;;;;;5084945;28;20234;-66
2023/09/12 08:40:18;;;;;;;15.38;6.55;;;25.20;99.90;;;;;;5084640;28;20564;-66
2023/09/12 08:42:46;;;;;;;15.48;6.22;;;25.30;99.90;;;;;;5084731;28;20210;-66
2023/09/12 08:45:14;;;;;;;14.63;6.40;;;25.40;99.90;;;;;;5084540;28;20213;-66
2023/09/12 08:47:43;;;;;;;14.85;5.90;;;25.40;99.90;;;;;;5084427;28;20321;-66
2023/09/12 08:50:13;;;;;;;14.70;6.03;;;25.50;99.90;;;;;;5085035;28;20238;-66
2023/09/12 08:52:42;;;;;;;17.08;6.50;;;25.60;99.90;;;;;;5084652;28;20206;-66
2023/09/12 08:55:11;;;;;;;9.07;5.65;;;25.60;99.90;;;;;;5084576;28;20203;-66
2023/09/12 08:57:40;;;;;;;17.70;6.65;;;25.70;99.90;;;;;;5100458;28;20647;-66
2023/09/12 09:00:09;;;;;;;13.07;6.50;;;25.70;99.90;;;;;;5105320;28;20230;-66
2023/09/12 09:02:38;;;;;;;14.02;6.82;;;25.80;99.90;;;;;;5104646;28;20696;-66
2023/09/12 09:05:06;;;;;;;15.85;6.93;;;25.90;99.90;;;;;;5105092;28;20236;-66
2023/09/12 09:07:34;;;;;;;18.20;8.30;;;26.00;99.90;;;;;;5097449;28;20211;-66
2023/09/12 09:10:04;;;;;;;13.93;7.72;;;26.10;99.90;;;;;;5084446;28;20289;-66
2023/09/12 09:12:33;;;;;;;13.88;7.38;;;26.10;99.90;;;;;;5084023;28;20677;-66
2023/09/12 09:15:20;;;;;;;12.20;7.10;;;26.10;99.90;;;;;;5070719;28;20222;-66
2023/09/12 09:17:47;;;;;;;13.27;8.00;;;26.10;99.90;;;;;;5064235;28;20617;-66
2023/09/12 09:20:23;;;;;;;18.42;7.90;;;26.20;99.90;;;;;;5064261;28;20301;-66
2023/09/12 09:23:00;;;;;;;11.32;7.70;;;26.20;99.90;;;;;;5073093;28;20809;-66
2023/09/12 09:25:28;;;;;;;15.60;7.63;;;26.30;99.90;;;;;;5084923;28;20244;-66
2023/09/12 09:27:56;;;;;;;13.60;8.55;;;26.30;99.90;;;;;;5105642;28;20283;-66
2023/09/12 09:30:41;;;;;;;17.65;8.48;;;26.30;99.90;;;;;;5092105;28;20311;-66
2023/09/12 09:33:08;;;;;;;15.50;8.15;;;26.40;99.90;;;;;;5087663;28;20277;-66
2023/09/12 09:35:36;;;;;;;14.68;8.13;;;26.40;99.90;;;;;;5087688;28;20213;-67
2023/09/12 09:38:04;;;;;;;18.00;8.68;;;26.40;99.90;;;;;;5087533;28;20298;-67
2023/09/12 09:40:32;;;;;;;16.45;8.98;;;26.50;99.90;;;;;;5087288;28;20772;-67
2023/09/12 09:43:02;;;;;;;42.38;10.50;;;26.50;99.90;;;;;;5087342;28;20843;-66
2023/09/12 09:45:30;;;;;;;14.48;8.52;;;26.60;99.90;;;;;;5087668;28;20202;-67
2023/09/12 09:47:59;;;;;;;11.95;8.35;;;26.60;99.90;;;;;;5087702;28;20370;-66
2023/09/12 09:50:26;;;;;;;17.90;8.52;;;26.70;99.90;;;;;;5087840;28;20290;-67
2023/09/12 09:52:58;;;;;;;10.40;8.27;;;26.70;99.90;;;;;;5087678;28;20206;-67
2023/09/12 09:55:26;;;;;;;13.98;8.45;;;26.70;99.90;;;;;;5087714;28;20201;-67
2023/09/12 09:57:53;;;;;;;16.85;7.70;;;26.80;99.90;;;;;;5105090;28;20642;-66
2023/09/12 10:00:23;;;;;;;12.27;8.35;;;26.80;99.90;;;;;;5107944;28;20217;-67
2023/09/12 10:02:52;;;;;;;13.38;8.20;;;26.90;99.90;;;;;;5107704;28;20190;-67
2023/09/12 10:05:19;;;;;;;16.95;8.07;;;27.00;99.90;;;;;;5107884;28;20728;-67
2023/09/12 10:07:50;;;;;;;11.27;8.00;;;27.00;99.90;;;;;;5107488;28;20210;-66
2023/09/12 10:10:19;;;;;;;34.63;9.43;;;27.00;99.90;;;;;;5098219;28;20214;-67
2023/09/12 10:12:51;;;;;;;16.75;7.15;;;27.10;99.90;;;;;;5086770;28;20207;-67
2023/09/12 10:15:22;;;;;;;14.18;7.68;;;27.20;99.90;;;;;;5087080;28;20226;-66
2023/09/12 10:17:56;;;;;;;12.98;6.75;;;27.20;99.90;;;;;;5086848;28;20223;-67
2023/09/12 10:20:26;;;;;;;14.00;7.38;;;27.30;99.90;;;;;;5086889;28;20314;-67
2023/09/12 10:23:02;;;;;;;8.48;6.25;;;27.40;99.90;;;;;;5086895;28;20203;-67
2023/09/12 10:25:30;;;;;;;24.70;7.28;;;27.50;99.90;;;;;;5086980;28;20278;-67
2023/09/12 10:27:57;;;;;;;10.32;6.20;;;27.50;99.90;;;;;;5104812;28;20302;-67
2023/09/12 10:30:26;;;;;;;10.95;6.32;;;27.50;99.90;;;;;;5107369;28;20208;-67
2023/09/12 10:32:54;;;;;;;8.80;5.95;;;27.60;99.90;;;;;;5107435;28;20587;-67
2023/09/12 10:35:21;;;;;;;14.55;6.07;;;27.70;99.90;;;;;;5106307;28;20305;-67
2023/09/12 10:37:51;;;;;;;31.55;7.50;;;27.80;99.90;;;;;;5086955;28;20326;-67
2023/09/12 10:40:20;;;;;;;14.75;5.97;;;27.80;99.90;;;;;;5086873;28;20275;-67
2023/09/12 10:42:49;;;;;;;8.48;6.47;;;27.90;99.90;;;;;;5086416;28;20242;-67
2023/09/12 10:45:16;;;;;;;13.27;5.72;;;27.90;99.90;;;;;;5086367;28;20285;-67
2023/09/12 10:47:45;;;;;;;17.20;6.20;;;28.00;99.90;;;;;;5085788;28;20218;-67
2023/09/12 10:50:13;;;;;;;8.60;5.63;;;28.00;99.90;;;;;;5086313;28;20302;-67
2023/09/12 10:52:40;;;;;;;11.07;6.00;;;28.10;99.90;;;;;;5086280;28;20213;-67
2023/09/12 10:55:08;;;;;;;6.75;5.43;;;28.10;99.90;;;;;;5086038;28;20260;-69
2023/09/12 10:57:35;;;;;;;5.97;5.07;;;28.20;99.90;;;;;;5101098;28;20328;-67
2023/09/12 11:00:13;;;;;;;6.75;5.20;;;28.20;99.90;;;;;;5099246;28;20294;-67
2023/09/12 11:02:41;;;;;;;7.45;5.43;;;28.30;99.90;;;;;;5085947;28;20266;-66
2023/09/12 11:05:37;;;;;;;6.78;5.63;;;28.40;99.90;;;;;;5086730;28;20207;-67
2023/09/12 11:08:04;;;;;;;9.02;5.80;;;28.40;99.90;;;;;;5083872;28;20225;-67
2023/09/12 11:10:32;;;;;;;7.07;5.93;;;28.50;99.90;;;;;;5085911;28;20215;-68
2023/09/12 11:13:00;;;;;;;9.27;5.90;;;28.60;99.90;;;;;;5086004;28;20203;-67
2023/09/12 11:15:28;;;;;;;7.22;5.25;;;28.60;99.90;;;;;;5085950;28;20281;-67
2023/09/12 11:18:04;;;;;;;9.30;6.25;;;28.70;99.90;;;;;;5085630;28;20230;-67
2023/09/12 11:21:03;;;;;;;9.82;5.50;;;28.60;99.90;;;;;;5085983;28;20827;-67
2023/09/12 11:23:31;;;;;;;7.10;5.53;;;28.50;99.90;;;;;;5065823;28;20651;-67
2023/09/12 11:26:06;;;;;;;8.68;5.50;;;28.50;99.90;;;;;;5068335;28;20302;-67
2023/09/12 11:28:33;;;;;;;8.68;5.45;;;28.40;99.90;;;;;;5105857;28;20213;-67
2023/09/12 11:31:00;;;;;;;6.78;5.75;;;28.30;99.90;;;;;;5106033;28;20210;-67
2023/09/12 11:33:27;;;;;;;11.13;5.40;;;28.30;99.90;;;;;;5106013;28;20288;-67
2023/09/12 11:35:57;;;;;;;9.57;5.15;;;28.30;99.90;;;;;;5105896;28;20210;-67
2023/09/12 11:38:29;;;;;;;7.55;4.93;;;28.20;99.90;;;;;;5105964;28;20307;-67
2023/09/12 11:40:56;;;;;;;8.57;4.90;;;28.20;99.90;;;;;;5105810;28;20237;-67
2023/09/12 11:43:24;;;;;;;38.78;7.85;;;28.30;99.90;;;;;;5100512;28;20294;-67
2023/09/12 11:45:52;;;;;;;9.20;5.50;;;28.40;99.90;;;;;;5084719;28;20333;-67
2023/09/12 11:48:19;;;;;;;9.45;5.20;;;28.50;99.90;;;;;;5084485;28;20214;-67
2023/09/12 11:50:52;;;;;;;6.28;5.25;;;28.60;99.90;;;;;;5084882;28;20238;-67
2023/09/12 11:53:25;;;;;;;8.13;5.13;;;28.70;99.90;;;;;;5085366;28;20230;-67
2023/09/12 11:55:55;;;;;;;7.90;5.70;;;28.70;99.90;;;;;;5085317;28;20203;-67
2023/09/12 11:58:23;;;;;;;8.02;4.90;;;28.80;99.90;;;;;;5085084;28;20226;-67
2023/09/12 12:00:51;;;;;;;8.60;4.90;;;28.90;99.90;;;;;;5085022;28;20637;-67
2023/09/12 12:03:20;;;;;;;7.63;4.82;;;29.00;99.90;;;;;;5085159;28;20219;-67
2023/09/12 12:05:47;;;;;;;5.28;4.65;;;29.00;99.90;;;;;;5084681;28;20583;-67
2023/09/12 12:08:17;;;;;;;8.98;4.75;;;29.10;99.90;;;;;;5085466;28;20265;-67
2023/09/12 12:10:50;;;;;;;7.78;5.10;;;29.10;99.90;;;;;;5082788;28;20233;-67
2023/09/12 12:13:18;;;;;;;6.82;5.18;;;29.10;99.90;;;;;;5064195;28;20286;-67
2023/09/12 12:15:45;;;;;;;7.43;4.85;;;29.10;99.90;;;;;;5064591;28;20814;-67
2023/09/12 12:18:12;;;;;;;6.50;5.60;;;29.10;99.90;;;;;;5072542;28;20329;-67
2023/09/12 12:20:39;;;;;;;5.30;4.80;;;29.10;99.90;;;;;;5084998;28;20238;-67
2023/09/12 12:23:06;;;;;;;6.78;4.68;;;29.10;99.90;;;;;;5084892;28;20206;-67
2023/09/12 12:25:34;;;;;;;7.22;4.88;;;29.20;99.90;;;;;;5084595;28;20991;-67
2023/09/12 12:28:03;;;;;;;6.68;5.45;;;29.30;99.90;;;;;;5103201;28;20210;-67
2023/09/12 12:30:32;;;;;;;6.05;5.00;;;29.30;99.90;;;;;;5104768;28;20210;-67
2023/09/12 12:33:01;;;;;;;12.02;5.40;;;29.30;99.90;;;;;;5105235;28;20201;-67
2023/09/12 12:35:28;;;;;;;8.32;5.47;;;29.40;99.90;;;;;;5105059;28;20308;-67
2023/09/12 12:37:56;;;;;;;7.85;5.53;;;29.40;99.90;;;;;;5105108;28;20348;-67
2023/09/12 12:40:23;;;;;;;6.25;4.75;;;29.50;99.90;;;;;;5105375;28;20233;-67
2023/09/12 12:42:50;;;;;;;5.85;5.00;;;29.50;99.90;;;;;;5105087;28;20293;-67
2023/09/12 12:45:20;;;;;;;10.82;5.03;;;29.50;99.90;;;;;;5104798;28;20924;-67
2023/09/12 12:47:47;;;;;;;13.02;5.70;;;29.50;99.90;;;;;;5104744;28;20229;-67